sensor_id;sensor_type;location;lat;lon;timestamp;P1;durP1;ratioP1;P2;durP2;ratioP2
11893;SDS011;6006;49.696;8.662;2022-10-23T00:02:02;2.93;;;1.27;;
11893;SDS011;6006;49.696;8.662;2022-10-23T00:04:29;2.73;;;1.10;;
11893;SDS011;6006;49.696;8.662;2022-10-23T00:06:56;8.23;;;1.27;;
11893;SDS011;6006;49.696;8.662;2022-10-23T00:09:23;4.23;;;1.10;;
11893;SDS011;6006;49.696;8.662;2022-10-23T00:11:50;3.73;;;1.27;;
11893;SDS011;6006;49.696;8.662;2022-10-23T00:14:18;6.80;;;1.37;;
11893;SDS011;6006;49.696;8.662;2022-10-23T00:16:46;4.03;;;1.60;;
11893;SDS011;6006;49.696;8.662;2022-10-23T00:19:14;3.07;;;1.10;;
11893;SDS011;6006;49.696;8.662;2022-10-23T00:21:41;3.73;;;1.23;;
11893;SDS011;6006;49.696;8.662;2022-10-23T00:24:08;2.43;;;1.30;;
11893;SDS011;6006;49.696;8.662;2022-10-23T00:26:35;3.07;;;1.50;;
11893;SDS011;6006;49.696;8.662;2022-10-23T00:29:04;2.90;;;1.47;;
11893;SDS011;6006;49.696;8.662;2022-10-23T00:31:32;3.70;;;1.27;;
11893;SDS011;6006;49.696;8.662;2022-10-23T00:33:59;3.67;;;1.40;;
11893;SDS011;6006;49.696;8.662;2022-10-23T00:36:27;5.47;;;1.20;;
11893;SDS011;6006;49.696;8.662;2022-10-23T00:38:54;10.20;;;1.47;;
11893;SDS011;6006;49.696;8.662;2022-10-23T00:41:21;6.40;;;1.40;;
11893;SDS011;6006;49.696;8.662;2022-10-23T00:43:53;2.47;;;1.30;;
11893;SDS011;6006;49.696;8.662;2022-10-23T00:46:22;4.67;;;1.30;;
11893;SDS011;6006;49.696;8.662;2022-10-23T00:48:49;3.70;;;1.80;;
11893;SDS011;6006;49.696;8.662;2022-10-23T00:51:16;5.77;;;1.03;;
11893;SDS011;6006;49.696;8.662;2022-10-23T00:53:45;1.80;;;1.30;;
11893;SDS011;6006;49.696;8.662;2022-10-23T00:56:15;2.27;;;1.20;;
11893;SDS011;6006;49.696;8.662;2022-10-23T00:58:42;6.43;;;1.40;;
11893;SDS011;6006;49.696;8.662;2022-10-23T01:01:16;6.47;;;1.30;;
11893;SDS011;6006;49.696;8.662;2022-10-23T01:03:44;5.83;;;1.30;;
11893;SDS011;6006;49.696;8.662;2022-10-23T01:06:13;3.47;;;1.00;;
11893;SDS011;6006;49.696;8.662;2022-10-23T01:08:49;2.57;;;1.27;;
11893;SDS011;6006;49.696;8.662;2022-10-23T01:11:21;2.90;;;1.33;;
11893;SDS011;6006;49.696;8.662;2022-10-23T01:13:55;1.77;;;1.03;;
11893;SDS011;6006;49.696;8.662;2022-10-23T01:16:30;8.87;;;1.53;;
11893;SDS011;6006;49.696;8.662;2022-10-23T01:19:05;2.77;;;1.13;;
11893;SDS011;6006;49.696;8.662;2022-10-23T01:21:44;3.50;;;1.30;;
11893;SDS011;6006;49.696;8.662;2022-10-23T01:24:23;4.00;;;1.33;;
11893;SDS011;6006;49.696;8.662;2022-10-23T01:27:13;3.73;;;1.20;;
11893;SDS011;6006;49.696;8.662;2022-10-23T01:29:49;2.13;;;1.00;;
11893;SDS011;6006;49.696;8.662;2022-10-23T01:32:25;3.63;;;1.10;;
11893;SDS011;6006;49.696;8.662;2022-10-23T01:34:59;1.57;;;1.40;;
11893;SDS011;6006;49.696;8.662;2022-10-23T01:37:31;1.80;;;1.07;;
11893;SDS011;6006;49.696;8.662;2022-10-23T01:40:04;2.40;;;1.03;;
11893;SDS011;6006;49.696;8.662;2022-10-23T01:42:37;6.47;;;1.17;;
11893;SDS011;6006;49.696;8.662;2022-10-23T01:45:11;3.23;;;1.20;;
11893;SDS011;6006;49.696;8.662;2022-10-23T01:47:43;3.50;;;1.00;;
11893;SDS011;6006;49.696;8.662;2022-10-23T01:50:11;4.60;;;1.20;;
11893;SDS011;6006;49.696;8.662;2022-10-23T01:52:40;2.53;;;1.17;;
11893;SDS011;6006;49.696;8.662;2022-10-23T01:55:08;1.20;;;0.93;;
11893;SDS011;6006;49.696;8.662;2022-10-23T01:57:38;5.73;;;1.03;;
11893;SDS011;6006;49.696;8.662;2022-10-23T02:00:07;3.80;;;1.17;;
11893;SDS011;6006;49.696;8.662;2022-10-23T02:02:37;3.80;;;1.47;;
11893;SDS011;6006;49.696;8.662;2022-10-23T02:05:07;5.37;;;1.30;;
11893;SDS011;6006;49.696;8.662;2022-10-23T02:07:37;3.13;;;1.10;;
11893;SDS011;6006;49.696;8.662;2022-10-23T02:10:05;2.27;;;1.27;;
11893;SDS011;6006;49.696;8.662;2022-10-23T02:12:35;2.37;;;1.20;;
11893;SDS011;6006;49.696;8.662;2022-10-23T02:15:12;3.17;;;1.37;;
11893;SDS011;6006;49.696;8.662;2022-10-23T02:17:46;2.33;;;1.33;;
11893;SDS011;6006;49.696;8.662;2022-10-23T02:20:18;9.03;;;1.67;;
11893;SDS011;6006;49.696;8.662;2022-10-23T02:22:51;6.83;;;1.80;;
11893;SDS011;6006;49.696;8.662;2022-10-23T02:25:25;1.50;;;1.40;;
11893;SDS011;6006;49.696;8.662;2022-10-23T02:27:59;5.47;;;1.50;;
11893;SDS011;6006;49.696;8.662;2022-10-23T02:30:29;2.97;;;1.10;;
11893;SDS011;6006;49.696;8.662;2022-10-23T02:32:58;4.03;;;1.30;;
11893;SDS011;6006;49.696;8.662;2022-10-23T02:35:27;5.97;;;1.00;;
11893;SDS011;6006;49.696;8.662;2022-10-23T02:37:54;3.37;;;1.40;;
11893;SDS011;6006;49.696;8.662;2022-10-23T02:40:23;3.13;;;1.27;;
11893;SDS011;6006;49.696;8.662;2022-10-23T02:42:56;3.60;;;1.00;;
11893;SDS011;6006;49.696;8.662;2022-10-23T02:45:28;3.03;;;1.00;;
11893;SDS011;6006;49.696;8.662;2022-10-23T02:47:58;1.40;;;1.10;;
11893;SDS011;6006;49.696;8.662;2022-10-23T02:50:32;1.30;;;1.20;;
11893;SDS011;6006;49.696;8.662;2022-10-23T02:53:05;1.53;;;1.23;;
11893;SDS011;6006;49.696;8.662;2022-10-23T02:55:43;2.33;;;1.17;;
11893;SDS011;6006;49.696;8.662;2022-10-23T02:58:21;5.23;;;1.03;;
11893;SDS011;6006;49.696;8.662;2022-10-23T03:00:53;2.77;;;1.03;;
11893;SDS011;6006;49.696;8.662;2022-10-23T03:03:25;2.10;;;1.30;;
11893;SDS011;6006;49.696;8.662;2022-10-23T03:05:57;2.33;;;1.10;;
11893;SDS011;6006;49.696;8.662;2022-10-23T03:08:24;1.00;;;1.00;;
11893;SDS011;6006;49.696;8.662;2022-10-23T03:10:51;3.00;;;1.10;;
11893;SDS011;6006;49.696;8.662;2022-10-23T03:13:19;2.57;;;1.17;;
11893;SDS011;6006;49.696;8.662;2022-10-23T03:15:47;3.00;;;1.20;;
11893;SDS011;6006;49.696;8.662;2022-10-23T03:18:14;4.93;;;1.03;;
11893;SDS011;6006;49.696;8.662;2022-10-23T03:20:41;1.33;;;1.00;;
11893;SDS011;6006;49.696;8.662;2022-10-23T03:23:09;1.10;;;1.00;;
11893;SDS011;6006;49.696;8.662;2022-10-23T03:25:38;1.37;;;0.93;;
11893;SDS011;6006;49.696;8.662;2022-10-23T03:28:04;8.13;;;1.10;;
11893;SDS011;6006;49.696;8.662;2022-10-23T03:30:33;3.37;;;1.30;;
11893;SDS011;6006;49.696;8.662;2022-10-23T03:33:00;2.53;;;1.43;;
11893;SDS011;6006;49.696;8.662;2022-10-23T03:35:27;6.50;;;1.50;;
11893;SDS011;6006;49.696;8.662;2022-10-23T03:37:53;3.60;;;1.13;;
11893;SDS011;6006;49.696;8.662;2022-10-23T03:40:20;1.77;;;1.33;;
11893;SDS011;6006;49.696;8.662;2022-10-23T03:42:47;0.90;;;0.90;;
11893;SDS011;6006;49.696;8.662;2022-10-23T03:45:14;1.80;;;1.50;;
11893;SDS011;6006;49.696;8.662;2022-10-23T03:47:42;4.30;;;0.93;;
11893;SDS011;6006;49.696;8.662;2022-10-23T03:50:09;3.37;;;1.17;;
11893;SDS011;6006;49.696;8.662;2022-10-23T03:52:37;1.70;;;1.10;;
11893;SDS011;6006;49.696;8.662;2022-10-23T03:55:05;2.73;;;1.30;;
11893;SDS011;6006;49.696;8.662;2022-10-23T03:57:33;2.03;;;1.20;;
11893;SDS011;6006;49.696;8.662;2022-10-23T04:00:00;2.70;;;1.10;;
11893;SDS011;6006;49.696;8.662;2022-10-23T04:02:27;2.37;;;1.20;;
11893;SDS011;6006;49.696;8.662;2022-10-23T04:04:55;2.17;;;1.20;;
11893;SDS011;6006;49.696;8.662;2022-10-23T04:07:22;5.73;;;1.30;;
11893;SDS011;6006;49.696;8.662;2022-10-23T04:09:49;1.50;;;1.20;;
11893;SDS011;6006;49.696;8.662;2022-10-23T04:12:16;2.90;;;1.33;;
11893;SDS011;6006;49.696;8.662;2022-10-23T04:14:43;5.33;;;1.57;;
11893;SDS011;6006;49.696;8.662;2022-10-23T04:17:10;2.20;;;1.30;;
11893;SDS011;6006;49.696;8.662;2022-10-23T04:19:37;7.83;;;1.60;;
11893;SDS011;6006;49.696;8.662;2022-10-23T04:22:05;4.23;;;1.37;;
11893;SDS011;6006;49.696;8.662;2022-10-23T04:24:32;2.50;;;1.10;;
11893;SDS011;6006;49.696;8.662;2022-10-23T04:26:59;1.53;;;1.10;;
11893;SDS011;6006;49.696;8.662;2022-10-23T04:29:26;2.00;;;1.37;;
11893;SDS011;6006;49.696;8.662;2022-10-23T04:31:56;4.03;;;1.50;;
11893;SDS011;6006;49.696;8.662;2022-10-23T04:34:23;2.57;;;1.13;;
11893;SDS011;6006;49.696;8.662;2022-10-23T04:36:50;4.37;;;1.40;;
11893;SDS011;6006;49.696;8.662;2022-10-23T04:39:18;2.50;;;1.47;;
11893;SDS011;6006;49.696;8.662;2022-10-23T04:41:45;4.87;;;1.40;;
11893;SDS011;6006;49.696;8.662;2022-10-23T04:44:12;5.03;;;1.70;;
11893;SDS011;6006;49.696;8.662;2022-10-23T04:46:39;2.90;;;1.40;;
11893;SDS011;6006;49.696;8.662;2022-10-23T04:49:06;1.70;;;1.30;;
11893;SDS011;6006;49.696;8.662;2022-10-23T04:51:33;1.63;;;1.23;;
11893;SDS011;6006;49.696;8.662;2022-10-23T04:54:00;3.40;;;1.27;;
11893;SDS011;6006;49.696;8.662;2022-10-23T04:56:28;2.43;;;1.20;;
11893;SDS011;6006;49.696;8.662;2022-10-23T04:58:55;5.70;;;1.47;;
11893;SDS011;6006;49.696;8.662;2022-10-23T05:01:22;2.30;;;1.33;;
11893;SDS011;6006;49.696;8.662;2022-10-23T05:03:49;1.57;;;1.30;;
11893;SDS011;6006;49.696;8.662;2022-10-23T05:06:18;4.20;;;1.50;;
11893;SDS011;6006;49.696;8.662;2022-10-23T05:08:44;4.37;;;1.67;;
11893;SDS011;6006;49.696;8.662;2022-10-23T05:11:11;1.27;;;1.20;;
11893;SDS011;6006;49.696;8.662;2022-10-23T05:13:40;7.23;;;1.80;;
11893;SDS011;6006;49.696;8.662;2022-10-23T05:16:07;4.13;;;1.30;;
11893;SDS011;6006;49.696;8.662;2022-10-23T05:18:34;3.47;;;1.47;;
11893;SDS011;6006;49.696;8.662;2022-10-23T05:21:06;4.83;;;1.40;;
11893;SDS011;6006;49.696;8.662;2022-10-23T05:23:36;2.33;;;1.50;;
11893;SDS011;6006;49.696;8.662;2022-10-23T05:26:05;1.77;;;1.67;;
11893;SDS011;6006;49.696;8.662;2022-10-23T05:28:32;1.90;;;1.43;;
11893;SDS011;6006;49.696;8.662;2022-10-23T05:31:01;2.00;;;1.47;;
11893;SDS011;6006;49.696;8.662;2022-10-23T05:33:31;2.20;;;1.33;;
11893;SDS011;6006;49.696;8.662;2022-10-23T05:36:01;1.70;;;1.37;;
11893;SDS011;6006;49.696;8.662;2022-10-23T05:38:29;1.40;;;1.30;;
11893;SDS011;6006;49.696;8.662;2022-10-23T05:40:58;2.37;;;1.70;;
11893;SDS011;6006;49.696;8.662;2022-10-23T05:43:25;2.10;;;1.77;;
11893;SDS011;6006;49.696;8.662;2022-10-23T05:45:55;2.40;;;1.50;;
11893;SDS011;6006;49.696;8.662;2022-10-23T05:48:23;2.90;;;1.67;;
11893;SDS011;6006;49.696;8.662;2022-10-23T05:50:50;5.63;;;1.70;;
11893;SDS011;6006;49.696;8.662;2022-10-23T05:53:17;4.17;;;2.10;;
11893;SDS011;6006;49.696;8.662;2022-10-23T05:55:44;5.07;;;1.77;;
11893;SDS011;6006;49.696;8.662;2022-10-23T05:58:11;2.37;;;1.60;;
11893;SDS011;6006;49.696;8.662;2022-10-23T06:00:37;3.17;;;1.97;;
11893;SDS011;6006;49.696;8.662;2022-10-23T06:03:04;2.93;;;1.63;;
11893;SDS011;6006;49.696;8.662;2022-10-23T06:05:33;1.60;;;1.50;;
11893;SDS011;6006;49.696;8.662;2022-10-23T06:08:00;4.63;;;1.70;;
11893;SDS011;6006;49.696;8.662;2022-10-23T06:10:26;2.20;;;1.63;;
11893;SDS011;6006;49.696;8.662;2022-10-23T06:12:53;4.50;;;1.37;;
11893;SDS011;6006;49.696;8.662;2022-10-23T06:15:20;3.90;;;1.20;;
11893;SDS011;6006;49.696;8.662;2022-10-23T06:17:47;2.40;;;1.40;;
11893;SDS011;6006;49.696;8.662;2022-10-23T06:20:14;2.57;;;1.70;;
11893;SDS011;6006;49.696;8.662;2022-10-23T06:22:42;5.03;;;1.60;;
11893;SDS011;6006;49.696;8.662;2022-10-23T06:25:09;3.50;;;1.77;;
11893;SDS011;6006;49.696;8.662;2022-10-23T06:27:36;3.90;;;1.90;;
11893;SDS011;6006;49.696;8.662;2022-10-23T06:30:03;1.83;;;1.73;;
11893;SDS011;6006;49.696;8.662;2022-10-23T06:32:31;3.97;;;2.20;;
11893;SDS011;6006;49.696;8.662;2022-10-23T06:34:58;5.63;;;1.70;;
11893;SDS011;6006;49.696;8.662;2022-10-23T06:37:25;3.30;;;1.63;;
11893;SDS011;6006;49.696;8.662;2022-10-23T06:39:53;3.50;;;1.50;;
11893;SDS011;6006;49.696;8.662;2022-10-23T06:42:20;4.20;;;1.80;;
11893;SDS011;6006;49.696;8.662;2022-10-23T06:44:47;2.90;;;1.80;;
11893;SDS011;6006;49.696;8.662;2022-10-23T06:47:14;1.93;;;1.60;;
11893;SDS011;6006;49.696;8.662;2022-10-23T06:49:41;3.07;;;2.03;;
11893;SDS011;6006;49.696;8.662;2022-10-23T06:52:08;2.53;;;2.30;;
11893;SDS011;6006;49.696;8.662;2022-10-23T06:54:35;2.50;;;2.33;;
11893;SDS011;6006;49.696;8.662;2022-10-23T06:57:03;2.90;;;2.50;;
11893;SDS011;6006;49.696;8.662;2022-10-23T06:59:30;8.17;;;2.87;;
11893;SDS011;6006;49.696;8.662;2022-10-23T07:01:57;3.83;;;2.60;;
11893;SDS011;6006;49.696;8.662;2022-10-23T07:04:24;2.73;;;2.07;;
11893;SDS011;6006;49.696;8.662;2022-10-23T07:06:53;2.93;;;2.63;;
11893;SDS011;6006;49.696;8.662;2022-10-23T07:09:20;4.50;;;2.77;;
11893;SDS011;6006;49.696;8.662;2022-10-23T07:11:47;5.40;;;2.37;;
11893;SDS011;6006;49.696;8.662;2022-10-23T07:14:15;2.23;;;2.10;;
11893;SDS011;6006;49.696;8.662;2022-10-23T07:16:42;3.03;;;2.27;;
11893;SDS011;6006;49.696;8.662;2022-10-23T07:19:09;2.43;;;2.23;;
11893;SDS011;6006;49.696;8.662;2022-10-23T07:21:36;6.13;;;2.27;;
11893;SDS011;6006;49.696;8.662;2022-10-23T07:24:03;2.87;;;1.97;;
11893;SDS011;6006;49.696;8.662;2022-10-23T07:26:30;4.50;;;1.70;;
11893;SDS011;6006;49.696;8.662;2022-10-23T07:28:57;2.00;;;1.83;;
11893;SDS011;6006;49.696;8.662;2022-10-23T07:31:25;4.77;;;2.20;;
11893;SDS011;6006;49.696;8.662;2022-10-23T07:33:53;2.67;;;2.20;;
11893;SDS011;6006;49.696;8.662;2022-10-23T07:36:20;3.33;;;2.50;;
11893;SDS011;6006;49.696;8.662;2022-10-23T07:38:47;3.50;;;3.13;;
11893;SDS011;6006;49.696;8.662;2022-10-23T07:41:13;9.00;;;3.57;;
11893;SDS011;6006;49.696;8.662;2022-10-23T07:43:40;6.60;;;3.10;;
11893;SDS011;6006;49.696;8.662;2022-10-23T07:46:07;11.17;;;6.27;;
11893;SDS011;6006;49.696;8.662;2022-10-23T07:48:36;4.47;;;3.57;;
11893;SDS011;6006;49.696;8.662;2022-10-23T07:51:04;3.53;;;3.23;;
11893;SDS011;6006;49.696;8.662;2022-10-23T07:53:34;6.27;;;4.27;;
11893;SDS011;6006;49.696;8.662;2022-10-23T07:56:03;6.90;;;4.23;;
11893;SDS011;6006;49.696;8.662;2022-10-23T07:58:38;7.10;;;4.00;;
11893;SDS011;6006;49.696;8.662;2022-10-23T08:01:09;4.23;;;3.33;;
11893;SDS011;6006;49.696;8.662;2022-10-23T08:03:43;7.50;;;4.23;;
11893;SDS011;6006;49.696;8.662;2022-10-23T08:06:10;4.60;;;3.67;;
11893;SDS011;6006;49.696;8.662;2022-10-23T08:08:37;3.97;;;3.30;;
11893;SDS011;6006;49.696;8.662;2022-10-23T08:11:04;6.43;;;4.43;;
11893;SDS011;6006;49.696;8.662;2022-10-23T08:13:31;8.33;;;4.83;;
11893;SDS011;6006;49.696;8.662;2022-10-23T08:15:58;6.60;;;4.23;;
11893;SDS011;6006;49.696;8.662;2022-10-23T08:18:26;3.77;;;3.17;;
11893;SDS011;6006;49.696;8.662;2022-10-23T08:20:58;5.33;;;4.03;;
11893;SDS011;6006;49.696;8.662;2022-10-23T08:23:26;5.60;;;3.60;;
11893;SDS011;6006;49.696;8.662;2022-10-23T08:25:55;3.73;;;3.43;;
11893;SDS011;6006;49.696;8.662;2022-10-23T08:28:23;5.03;;;2.90;;
11893;SDS011;6006;49.696;8.662;2022-10-23T08:30:50;3.53;;;3.20;;
11893;SDS011;6006;49.696;8.662;2022-10-23T08:33:16;2.70;;;2.50;;
11893;SDS011;6006;49.696;8.662;2022-10-23T08:35:43;3.00;;;2.80;;
11893;SDS011;6006;49.696;8.662;2022-10-23T08:38:13;6.65;;;2.90;;
11893;SDS011;6006;49.696;8.662;2022-10-23T08:40:42;3.95;;;2.70;;
11893;SDS011;6006;49.696;8.662;2022-10-23T08:43:11;2.92;;;2.40;;
11893;SDS011;6006;49.696;8.662;2022-10-23T08:45:43;4.22;;;2.55;;
11893;SDS011;6006;49.696;8.662;2022-10-23T08:48:15;5.68;;;2.40;;
11893;SDS011;6006;49.696;8.662;2022-10-23T08:50:48;2.42;;;2.13;;
11893;SDS011;6006;49.696;8.662;2022-10-23T08:53:19;2.90;;;2.20;;
11893;SDS011;6006;49.696;8.662;2022-10-23T08:55:51;3.83;;;2.03;;
11893;SDS011;6006;49.696;8.662;2022-10-23T08:58:23;5.53;;;1.70;;
11893;SDS011;6006;49.696;8.662;2022-10-23T09:00:56;4.85;;;1.70;;
11893;SDS011;6006;49.696;8.662;2022-10-23T09:03:24;5.50;;;1.70;;
11893;SDS011;6006;49.696;8.662;2022-10-23T09:05:56;2.28;;;1.95;;
11893;SDS011;6006;49.696;8.662;2022-10-23T09:08:37;3.63;;;1.92;;
11893;SDS011;6006;49.696;8.662;2022-10-23T09:11:10;2.60;;;1.95;;
11893;SDS011;6006;49.696;8.662;2022-10-23T09:14:04;2.72;;;2.30;;
11893;SDS011;6006;49.696;8.662;2022-10-23T09:16:54;2.75;;;2.08;;
11893;SDS011;6006;49.696;8.662;2022-10-23T09:19:30;2.97;;;2.13;;
11893;SDS011;6006;49.696;8.662;2022-10-23T09:21:57;5.68;;;2.60;;
11893;SDS011;6006;49.696;8.662;2022-10-23T09:24:25;5.00;;;2.78;;
11893;SDS011;6006;49.696;8.662;2022-10-23T09:26:56;6.15;;;3.20;;
11893;SDS011;6006;49.696;8.662;2022-10-23T09:29:25;4.25;;;2.33;;
11893;SDS011;6006;49.696;8.662;2022-10-23T09:31:54;5.22;;;2.75;;
11893;SDS011;6006;49.696;8.662;2022-10-23T09:34:22;2.38;;;2.15;;
11893;SDS011;6006;49.696;8.662;2022-10-23T09:36:51;4.32;;;2.50;;
11893;SDS011;6006;49.696;8.662;2022-10-23T09:39:20;4.75;;;2.30;;
11893;SDS011;6006;49.696;8.662;2022-10-23T09:41:50;3.38;;;2.58;;
11893;SDS011;6006;49.696;8.662;2022-10-23T09:44:18;5.05;;;3.13;;
11893;SDS011;6006;49.696;8.662;2022-10-23T09:46:47;6.53;;;3.30;;
11893;SDS011;6006;49.696;8.662;2022-10-23T09:49:18;3.70;;;2.85;;
11893;SDS011;6006;49.696;8.662;2022-10-23T09:51:51;3.63;;;2.70;;
11893;SDS011;6006;49.696;8.662;2022-10-23T09:54:21;7.25;;;3.25;;
11893;SDS011;6006;49.696;8.662;2022-10-23T09:56:50;8.10;;;3.95;;
11893;SDS011;6006;49.696;8.662;2022-10-23T09:59:21;5.38;;;3.70;;
11893;SDS011;6006;49.696;8.662;2022-10-23T10:01:52;5.30;;;4.13;;
11893;SDS011;6006;49.696;8.662;2022-10-23T10:04:30;5.57;;;4.18;;
11893;SDS011;6006;49.696;8.662;2022-10-23T10:06:58;7.60;;;4.97;;
11893;SDS011;6006;49.696;8.662;2022-10-23T10:09:26;8.95;;;5.18;;
11893;SDS011;6006;49.696;8.662;2022-10-23T10:11:55;6.65;;;4.80;;
11893;SDS011;6006;49.696;8.662;2022-10-23T10:17:31;8.38;;;5.78;;
11893;SDS011;6006;49.696;8.662;2022-10-23T10:20:23;6.82;;;4.70;;
11893;SDS011;6006;49.696;8.662;2022-10-23T10:23:03;5.78;;;5.13;;
11893;SDS011;6006;49.696;8.662;2022-10-23T10:25:36;6.60;;;5.35;;
11893;SDS011;6006;49.696;8.662;2022-10-23T10:28:16;8.93;;;5.32;;
11893;SDS011;6006;49.696;8.662;2022-10-23T10:30:55;6.82;;;5.15;;
11893;SDS011;6006;49.696;8.662;2022-10-23T10:33:32;5.50;;;4.45;;
11893;SDS011;6006;49.696;8.662;2022-10-23T10:36:09;8.07;;;4.53;;
11893;SDS011;6006;49.696;8.662;2022-10-23T10:38:55;6.45;;;4.22;;
11893;SDS011;6006;49.696;8.662;2022-10-23T10:44:16;5.45;;;4.60;;
11893;SDS011;6006;49.696;8.662;2022-10-23T10:47:04;6.13;;;4.15;;
11893;SDS011;6006;49.696;8.662;2022-10-23T10:49:38;5.95;;;4.53;;
11893;SDS011;6006;49.696;8.662;2022-10-23T10:52:11;6.30;;;4.35;;
11893;SDS011;6006;49.696;8.662;2022-10-23T10:54:50;5.82;;;3.85;;
11893;SDS011;6006;49.696;8.662;2022-10-23T10:57:27;4.82;;;3.65;;
11893;SDS011;6006;49.696;8.662;2022-10-23T10:59:59;8.50;;;3.45;;
11893;SDS011;6006;49.696;8.662;2022-10-23T11:02:31;4.57;;;3.00;;
11893;SDS011;6006;49.696;8.662;2022-10-23T11:05:04;7.18;;;4.25;;
11893;SDS011;6006;49.696;8.662;2022-10-23T11:07:41;7.38;;;4.18;;
11893;SDS011;6006;49.696;8.662;2022-10-23T11:10:19;6.18;;;3.60;;
11893;SDS011;6006;49.696;8.662;2022-10-23T11:12:46;5.22;;;3.70;;
11893;SDS011;6006;49.696;8.662;2022-10-23T11:15:15;5.00;;;3.97;;
11893;SDS011;6006;49.696;8.662;2022-10-23T11:17:46;4.38;;;3.40;;
11893;SDS011;6006;49.696;8.662;2022-10-23T11:26:19;3.70;;;3.40;;
11893;SDS011;6006;49.696;8.662;2022-10-23T11:29:02;5.97;;;3.53;;
11893;SDS011;6006;49.696;8.662;2022-10-23T11:31:52;5.38;;;3.13;;
11893;SDS011;6006;49.696;8.662;2022-10-23T11:34:42;5.70;;;3.08;;
11893;SDS011;6006;49.696;8.662;2022-10-23T11:37:20;4.38;;;3.28;;
11893;SDS011;6006;49.696;8.662;2022-10-23T11:39:59;6.20;;;2.85;;
11893;SDS011;6006;49.696;8.662;2022-10-23T11:42:30;4.20;;;3.15;;
11893;SDS011;6006;49.696;8.662;2022-10-23T11:44:59;3.28;;;2.97;;
11893;SDS011;6006;49.696;8.662;2022-10-23T11:47:32;4.30;;;2.85;;
11893;SDS011;6006;49.696;8.662;2022-10-23T11:50:13;7.32;;;3.17;;
11893;SDS011;6006;49.696;8.662;2022-10-23T11:52:53;6.85;;;3.47;;
11893;SDS011;6006;49.696;8.662;2022-10-23T11:55:25;4.00;;;2.78;;
11893;SDS011;6006;49.696;8.662;2022-10-23T12:00:58;3.20;;;2.90;;
11893;SDS011;6006;49.696;8.662;2022-10-23T12:03:30;3.60;;;3.13;;
11893;SDS011;6006;49.696;8.662;2022-10-23T12:06:05;4.82;;;3.05;;
11893;SDS011;6006;49.696;8.662;2022-10-23T12:08:42;3.50;;;3.20;;
11893;SDS011;6006;49.696;8.662;2022-10-23T12:11:25;3.30;;;2.70;;
11893;SDS011;6006;49.696;8.662;2022-10-23T12:13:54;4.07;;;2.63;;
11893;SDS011;6006;49.696;8.662;2022-10-23T12:16:21;2.60;;;2.38;;
11893;SDS011;6006;49.696;8.662;2022-10-23T12:18:50;2.67;;;2.38;;
11893;SDS011;6006;49.696;8.662;2022-10-23T12:21:20;6.70;;;2.40;;
11893;SDS011;6006;49.696;8.662;2022-10-23T12:27:05;2.33;;;2.10;;
11893;SDS011;6006;49.696;8.662;2022-10-23T12:29:45;2.33;;;2.05;;
11893;SDS011;6006;49.696;8.662;2022-10-23T12:32:32;2.65;;;2.00;;
11893;SDS011;6006;49.696;8.662;2022-10-23T12:35:19;3.30;;;2.10;;
11893;SDS011;6006;49.696;8.662;2022-10-23T12:37:59;2.95;;;2.30;;
11893;SDS011;6006;49.696;8.662;2022-10-23T12:40:35;4.00;;;2.38;;
11893;SDS011;6006;49.696;8.662;2022-10-23T12:43:02;6.55;;;2.72;;
11893;SDS011;6006;49.696;8.662;2022-10-23T12:45:29;3.15;;;2.10;;
11893;SDS011;6006;49.696;8.662;2022-10-23T12:47:59;3.60;;;2.25;;
11893;SDS011;6006;49.696;8.662;2022-10-23T12:50:29;3.60;;;1.95;;
11893;SDS011;6006;49.696;8.662;2022-10-23T12:52:57;5.57;;;2.22;;
11893;SDS011;6006;49.696;8.662;2022-10-23T12:55:26;3.75;;;2.53;;
11893;SDS011;6006;49.696;8.662;2022-10-23T12:57:55;4.82;;;2.20;;
11893;SDS011;6006;49.696;8.662;2022-10-23T13:00:23;2.55;;;2.10;;
11893;SDS011;6006;49.696;8.662;2022-10-23T13:02:56;2.10;;;1.83;;
11893;SDS011;6006;49.696;8.662;2022-10-23T13:05:24;1.92;;;1.83;;
11893;SDS011;6006;49.696;8.662;2022-10-23T13:07:53;6.22;;;2.20;;
11893;SDS011;6006;49.696;8.662;2022-10-23T13:10:22;1.70;;;1.60;;
11893;SDS011;6006;49.696;8.662;2022-10-23T13:12:51;2.95;;;1.67;;
11893;SDS011;6006;49.696;8.662;2022-10-23T13:15:21;3.05;;;1.77;;
11893;SDS011;6006;49.696;8.662;2022-10-23T13:17:58;3.85;;;1.70;;
11893;SDS011;6006;49.696;8.662;2022-10-23T13:20:27;4.75;;;1.92;;
11893;SDS011;6006;49.696;8.662;2022-10-23T13:22:58;3.10;;;1.73;;
11893;SDS011;6006;49.696;8.662;2022-10-23T13:25:28;4.72;;;1.98;;
11893;SDS011;6006;49.696;8.662;2022-10-23T13:28:04;2.88;;;1.60;;
11893;SDS011;6006;49.696;8.662;2022-10-23T13:30:56;2.92;;;2.35;;
11893;SDS011;6006;49.696;8.662;2022-10-23T13:33:48;2.25;;;1.95;;
11893;SDS011;6006;49.696;8.662;2022-10-23T13:36:20;1.70;;;1.58;;
11893;SDS011;6006;49.696;8.662;2022-10-23T13:38:59;2.40;;;1.92;;
11893;SDS011;6006;49.696;8.662;2022-10-23T13:41:29;4.47;;;1.70;;
11893;SDS011;6006;49.696;8.662;2022-10-23T13:44:00;8.00;;;1.95;;
11893;SDS011;6006;49.696;8.662;2022-10-23T13:46:27;3.38;;;1.92;;
11893;SDS011;6006;49.696;8.662;2022-10-23T13:48:54;2.60;;;1.73;;
11893;SDS011;6006;49.696;8.662;2022-10-23T13:51:21;1.92;;;1.73;;
11893;SDS011;6006;49.696;8.662;2022-10-23T13:53:50;2.53;;;1.92;;
11893;SDS011;6006;49.696;8.662;2022-10-23T13:56:19;2.88;;;1.90;;
11893;SDS011;6006;49.696;8.662;2022-10-23T13:58:47;3.63;;;1.67;;
11893;SDS011;6006;49.696;8.662;2022-10-23T14:01:15;4.63;;;1.90;;
11893;SDS011;6006;49.696;8.662;2022-10-23T14:03:47;3.03;;;1.50;;
11893;SDS011;6006;49.696;8.662;2022-10-23T14:06:14;3.05;;;1.63;;
11893;SDS011;6006;49.696;8.662;2022-10-23T14:08:41;4.32;;;2.13;;
11893;SDS011;6006;49.696;8.662;2022-10-23T14:11:08;2.88;;;1.70;;
11893;SDS011;6006;49.696;8.662;2022-10-23T14:13:37;2.00;;;1.50;;
11893;SDS011;6006;49.696;8.662;2022-10-23T14:16:05;5.68;;;2.00;;
11893;SDS011;6006;49.696;8.662;2022-10-23T14:18:32;2.75;;;1.73;;
11893;SDS011;6006;49.696;8.662;2022-10-23T14:20:59;2.67;;;2.08;;
11893;SDS011;6006;49.696;8.662;2022-10-23T14:23:26;2.38;;;1.83;;
11893;SDS011;6006;49.696;8.662;2022-10-23T14:25:53;4.82;;;2.25;;
11893;SDS011;6006;49.696;8.662;2022-10-23T14:28:26;1.80;;;1.50;;
11893;SDS011;6006;49.696;8.662;2022-10-23T14:30:54;4.40;;;1.98;;
11893;SDS011;6006;49.696;8.662;2022-10-23T14:33:21;5.85;;;1.92;;
11893;SDS011;6006;49.696;8.662;2022-10-23T14:35:48;3.33;;;1.50;;
11893;SDS011;6006;49.696;8.662;2022-10-23T14:38:15;2.80;;;1.58;;
11893;SDS011;6006;49.696;8.662;2022-10-23T14:40:42;3.22;;;1.50;;
11893;SDS011;6006;49.696;8.662;2022-10-23T14:43:09;3.03;;;1.98;;
11893;SDS011;6006;49.696;8.662;2022-10-23T14:45:36;4.10;;;2.15;;
11893;SDS011;6006;49.696;8.662;2022-10-23T14:48:05;5.07;;;2.20;;
11893;SDS011;6006;49.696;8.662;2022-10-23T14:50:33;4.85;;;1.40;;
11893;SDS011;6006;49.696;8.662;2022-10-23T14:53:00;2.95;;;2.00;;
11893;SDS011;6006;49.696;8.662;2022-10-23T14:55:28;4.65;;;2.22;;
11893;SDS011;6006;49.696;8.662;2022-10-23T14:57:55;4.07;;;1.92;;
11893;SDS011;6006;49.696;8.662;2022-10-23T15:00:22;2.50;;;2.00;;
11893;SDS011;6006;49.696;8.662;2022-10-23T15:02:49;2.72;;;1.77;;
11893;SDS011;6006;49.696;8.662;2022-10-23T15:05:18;3.17;;;1.85;;
11893;SDS011;6006;49.696;8.662;2022-10-23T15:07:45;4.50;;;1.98;;
11893;SDS011;6006;49.696;8.662;2022-10-23T15:10:12;3.67;;;1.83;;
11893;SDS011;6006;49.696;8.662;2022-10-23T15:12:38;4.20;;;1.70;;
11893;SDS011;6006;49.696;8.662;2022-10-23T15:15:06;4.63;;;1.85;;
11893;SDS011;6006;49.696;8.662;2022-10-23T15:17:33;4.07;;;2.08;;
11893;SDS011;6006;49.696;8.662;2022-10-23T15:20:02;9.80;;;1.98;;
11893;SDS011;6006;49.696;8.662;2022-10-23T15:22:31;2.08;;;1.80;;
11893;SDS011;6006;49.696;8.662;2022-10-23T15:24:58;7.43;;;1.95;;
11893;SDS011;6006;49.696;8.662;2022-10-23T15:27:25;5.00;;;2.20;;
11893;SDS011;6006;49.696;8.662;2022-10-23T15:29:51;2.13;;;1.40;;
11893;SDS011;6006;49.696;8.662;2022-10-23T15:32:18;4.88;;;2.08;;
11893;SDS011;6006;49.696;8.662;2022-10-23T15:34:45;3.63;;;1.75;;
11893;SDS011;6006;49.696;8.662;2022-10-23T15:37:13;2.90;;;1.50;;